createdAt,value
2022-12-23T00:00:07.676Z,99.99
2022-12-23T00:01:07.735Z,99.99
2022-12-23T00:02:07.788Z,99.99
2022-12-23T00:03:07.786Z,99.99
2022-12-23T00:04:07.692Z,99.99
2022-12-23T00:05:08.641Z,99.99
2022-12-23T00:06:07.628Z,99.99
2022-12-23T00:07:07.620Z,99.99
2022-12-23T00:08:07.612Z,99.99
2022-12-23T00:09:07.607Z,99.99
2022-12-23T00:10:07.614Z,99.99
2022-12-23T00:11:07.698Z,99.99
2022-12-23T00:12:07.572Z,99.99
2022-12-23T00:13:07.576Z,99.99
2022-12-23T00:14:07.582Z,99.99
2022-12-23T00:15:07.577Z,99.99
2022-12-23T00:16:07.587Z,99.99
2022-12-23T00:17:21.552Z,99.99
2022-12-23T00:18:09.572Z,99.99
2022-12-23T00:19:07.533Z,99.99
2022-12-23T00:20:07.542Z,99.99
2022-12-23T00:21:09.222Z,99.99
2022-12-23T00:22:08.506Z,99.99
2022-12-23T00:23:07.502Z,99.99
2022-12-23T00:24:07.504Z,99.99
2022-12-23T00:25:07.609Z,99.99
2022-12-23T00:26:07.510Z,99.99
2022-12-23T00:27:07.486Z,99.99
2022-12-23T00:28:07.527Z,99.99
2022-12-23T00:29:07.787Z,99.99
2022-12-23T00:30:07.463Z,99.99
2022-12-23T00:31:08.304Z,99.99
2022-12-23T00:32:07.576Z,99.99
2022-12-23T00:33:07.442Z,99.99
2022-12-23T00:34:08.354Z,99.99
2022-12-23T00:35:07.421Z,99.99
2022-12-23T00:36:07.586Z,99.99
2022-12-23T00:37:07.770Z,99.99
2022-12-23T00:38:07.399Z,99.99
2022-12-23T00:39:07.389Z,99.99
2022-12-23T00:40:07.424Z,99.99
2022-12-23T00:41:08.221Z,99.99
2022-12-23T00:42:07.398Z,99.99
2022-12-23T00:43:08.366Z,99.99
2022-12-23T00:44:07.361Z,99.99
2022-12-23T00:45:07.416Z,99.99
2022-12-23T00:46:07.420Z,99.99
2022-12-23T00:47:07.357Z,99.99
2022-12-23T00:48:07.497Z,99.99
2022-12-23T00:49:07.310Z,99.99
2022-12-23T00:50:07.310Z,99.99
2022-12-23T00:51:07.307Z,99.99
2022-12-23T00:52:07.290Z,99.99
2022-12-23T00:53:07.305Z,99.99
2022-12-23T00:54:07.283Z,99.99
2022-12-23T00:55:07.278Z,99.99
2022-12-23T00:56:07.846Z,99.99
2022-12-23T00:57:07.289Z,99.99
2022-12-23T00:58:07.282Z,99.99
2022-12-23T00:59:07.291Z,99.99
2022-12-23T01:00:07.245Z,99.99
2022-12-23T01:01:07.296Z,99.99
2022-12-23T01:02:07.358Z,99.99
2022-12-23T01:03:07.723Z,99.99
2022-12-23T01:04:07.576Z,99.99
2022-12-23T01:05:07.233Z,99.99
2022-12-23T01:06:07.213Z,99.99
2022-12-23T01:07:07.221Z,99.99
2022-12-23T01:08:07.190Z,99.99
2022-12-23T01:09:07.190Z,99.99
2022-12-23T01:10:07.976Z,99.99
2022-12-23T01:11:07.174Z,99.99
2022-12-23T01:12:07.216Z,99.99
2022-12-23T01:13:07.513Z,99.99
2022-12-23T01:14:07.164Z,99.99
2022-12-23T01:15:07.130Z,99.99
2022-12-23T01:16:13.345Z,99.99
2022-12-23T01:17:08.201Z,99.99
2022-12-23T01:18:07.150Z,99.99
2022-12-23T01:19:07.093Z,99.99
2022-12-23T01:20:07.100Z,99.99
2022-12-23T01:21:07.109Z,99.99
2022-12-23T01:22:07.083Z,99.99
2022-12-23T01:23:07.077Z,99.99
2022-12-23T01:24:07.071Z,99.99
2022-12-23T01:25:07.071Z,99.99
2022-12-23T01:26:07.083Z,99.99
2022-12-23T01:27:07.067Z,99.99
2022-12-23T01:28:07.040Z,99.99
2022-12-23T01:29:07.039Z,99.99
2022-12-23T01:30:07.036Z,99.99
2022-12-23T01:31:07.012Z,99.99
2022-12-23T01:32:07.061Z,99.99
2022-12-23T01:33:07.015Z,99.99
2022-12-23T01:34:07.012Z,99.99
2022-12-23T01:35:06.989Z,99.99
2022-12-23T01:36:07.008Z,99.99
2022-12-23T01:37:06.999Z,99.99
2022-12-23T01:38:06.973Z,99.99
2022-12-23T01:39:06.968Z,99.99
2022-12-23T01:40:06.955Z,99.99
2022-12-23T01:41:06.948Z,99.99
2022-12-23T01:42:06.981Z,99.99
2022-12-23T01:43:06.937Z,99.99
2022-12-23T01:44:06.939Z,99.99
2022-12-23T01:45:06.913Z,99.99
2022-12-23T01:46:07.968Z,99.99
2022-12-23T01:47:06.916Z,99.99
2022-12-23T01:48:06.892Z,99.99
2022-12-23T01:49:06.885Z,99.99
2022-12-23T01:50:06.879Z,99.99
2022-12-23T01:51:06.881Z,99.99
2022-12-23T01:52:06.879Z,99.99
2022-12-23T01:53:08.416Z,99.99
2022-12-23T01:54:07.855Z,99.99
2022-12-23T01:55:06.856Z,99.99
2022-12-23T01:56:06.855Z,99.99
2022-12-23T01:57:06.827Z,99.99
2022-12-23T01:58:06.841Z,99.99
2022-12-23T01:59:06.819Z,99.99
2022-12-23T02:00:06.814Z,99.99
2022-12-23T02:01:06.856Z,99.99
2022-12-23T02:02:06.973Z,99.99
2022-12-23T02:03:06.931Z,99.99
2022-12-23T02:04:06.801Z,99.99
2022-12-23T02:05:06.779Z,99.99
2022-12-23T02:06:06.775Z,99.99
2022-12-23T02:07:06.773Z,99.99
2022-12-23T02:08:06.779Z,99.99
2022-12-23T02:09:06.780Z,99.99
2022-12-23T02:10:06.766Z,99.99
2022-12-23T02:11:06.740Z,99.99
2022-12-23T02:12:06.746Z,99.99
2022-12-23T02:13:06.741Z,99.99
2022-12-23T02:14:06.724Z,99.99
2022-12-23T02:15:06.710Z,99.99
2022-12-23T02:16:06.706Z,99.99
2022-12-23T02:17:06.788Z,99.99
2022-12-23T02:18:06.698Z,99.99
2022-12-23T02:19:06.674Z,99.99
2022-12-23T02:20:06.686Z,99.99
2022-12-23T02:21:06.667Z,99.99
2022-12-23T02:22:06.663Z,99.99
2022-12-23T02:23:06.667Z,99.99
2022-12-23T02:24:07.637Z,99.99
2022-12-23T02:25:06.646Z,99.99
2022-12-23T02:26:06.623Z,99.99
2022-12-23T02:27:06.638Z,99.99
2022-12-23T02:28:06.619Z,99.99
2022-12-23T02:29:06.602Z,99.99
2022-12-23T02:30:06.607Z,99.99
2022-12-23T02:31:06.737Z,99.99
2022-12-23T02:32:06.586Z,99.99
2022-12-23T02:33:06.586Z,99.99
2022-12-23T02:34:06.591Z,99.99
2022-12-23T02:35:06.570Z,99.99
2022-12-23T02:36:06.568Z,99.99
2022-12-23T02:37:06.574Z,99.99
2022-12-23T02:38:06.554Z,99.99
2022-12-23T02:39:06.535Z,99.99
2022-12-23T02:40:06.532Z,99.99
2022-12-23T02:41:06.522Z,99.99
2022-12-23T02:42:06.541Z,99.99
2022-12-23T02:43:06.522Z,99.99
2022-12-23T02:44:06.502Z,99.99
2022-12-23T02:45:06.502Z,99.99
2022-12-23T02:46:06.524Z,99.99
2022-12-23T02:47:06.482Z,99.99
2022-12-23T02:48:06.484Z,99.99
2022-12-23T02:49:06.475Z,99.99
2022-12-23T02:50:07.451Z,99.99
2022-12-23T02:51:06.450Z,99.99
2022-12-23T02:52:06.470Z,99.99
2022-12-23T02:53:06.441Z,99.99
2022-12-23T02:54:06.428Z,99.99
2022-12-23T02:55:06.447Z,99.99
2022-12-23T02:56:06.449Z,99.99
2022-12-23T02:57:06.399Z,99.99
2022-12-23T02:58:06.404Z,99.99
2022-12-23T02:59:06.398Z,99.99
2022-12-23T03:00:06.378Z,99.99
2022-12-23T03:01:06.388Z,99.99
2022-12-23T03:02:06.545Z,99.99
2022-12-23T03:03:06.445Z,99.99
2022-12-23T03:04:06.935Z,99.99
2022-12-23T03:05:07.357Z,99.99
2022-12-23T03:06:06.332Z,99.99
2022-12-23T03:07:08.162Z,99.99
2022-12-23T03:08:07.345Z,99.99
2022-12-23T03:09:06.325Z,99.99
2022-12-23T03:10:06.319Z,99.99
2022-12-23T03:11:06.315Z,99.99
2022-12-23T03:12:06.290Z,99.99
2022-12-23T03:13:07.312Z,99.99
2022-12-23T03:14:06.285Z,99.99
2022-12-23T03:15:06.263Z,99.99
2022-12-23T03:16:06.310Z,99.99
2022-12-23T03:17:06.259Z,99.99
2022-12-23T03:18:06.250Z,99.99
2022-12-23T03:19:06.239Z,99.99
2022-12-23T03:20:06.262Z,99.99
2022-12-23T03:21:06.247Z,99.99
2022-12-23T03:22:06.233Z,99.99
2022-12-23T03:23:06.225Z,99.99
2022-12-23T03:24:06.247Z,99.99
2022-12-23T03:25:06.197Z,99.99
2022-12-23T03:26:06.194Z,99.99
2022-12-23T03:27:06.184Z,99.99
2022-12-23T03:28:06.224Z,99.99
2022-12-23T03:29:06.171Z,99.99
2022-12-23T03:30:06.151Z,99.99
2022-12-23T03:31:06.193Z,99.99
2022-12-23T03:32:06.173Z,99.99
2022-12-23T03:33:06.143Z,99.99
2022-12-23T03:34:06.134Z,99.99
2022-12-23T03:35:06.137Z,99.99
2022-12-23T03:36:06.128Z,99.99
2022-12-23T03:37:06.118Z,99.99
2022-12-23T03:38:06.105Z,99.99
2022-12-23T03:39:06.140Z,99.99
2022-12-23T03:40:06.092Z,99.99
2022-12-23T03:41:06.094Z,99.99
2022-12-23T03:42:06.090Z,99.99
2022-12-23T03:43:06.073Z,99.99
2022-12-23T03:44:06.064Z,99.99
2022-12-23T03:46:08.074Z,99.99
2022-12-23T03:47:06.085Z,99.99
2022-12-23T03:48:06.027Z,99.99
2022-12-23T03:49:07.058Z,99.99
2022-12-23T03:50:06.062Z,99.99
2022-12-23T03:51:06.024Z,99.99
2022-12-23T03:52:06.012Z,99.99
2022-12-23T03:53:06.004Z,99.99
2022-12-23T03:54:05.995Z,99.99
2022-12-23T03:55:06.016Z,99.99
2022-12-23T03:56:05.999Z,99.99
2022-12-23T03:57:05.979Z,99.99
2022-12-23T03:58:05.956Z,99.99
2022-12-23T03:59:05.963Z,99.99
2022-12-23T04:00:05.947Z,99.99
2022-12-23T04:01:05.945Z,99.99
2022-12-23T04:02:06.060Z,99.99
2022-12-23T04:03:05.983Z,99.99
2022-12-23T04:04:05.952Z,99.99
2022-12-23T04:05:05.917Z,99.99
2022-12-23T04:06:05.928Z,99.99
2022-12-23T04:07:05.899Z,99.99
2022-12-23T04:08:05.899Z,99.99
2022-12-23T04:09:05.883Z,99.99
2022-12-23T04:10:05.891Z,99.99
2022-12-23T04:11:05.895Z,99.99
2022-12-23T04:12:05.865Z,99.99
2022-12-23T04:13:05.844Z,99.99
2022-12-23T04:14:05.843Z,99.99
2022-12-23T04:15:12.284Z,99.99
2022-12-23T04:16:07.878Z,99.99
2022-12-23T04:17:05.826Z,99.99
2022-12-23T04:18:06.824Z,99.99
2022-12-23T04:19:05.807Z,99.99
2022-12-23T04:20:05.806Z,99.99
2022-12-23T04:21:05.811Z,99.99
2022-12-23T04:22:05.798Z,99.99
2022-12-23T04:23:05.787Z,99.99
2022-12-23T04:24:05.796Z,99.99
2022-12-23T04:25:05.775Z,99.99
2022-12-23T04:26:05.767Z,99.99
2022-12-23T04:27:05.810Z,99.99
2022-12-23T04:28:05.744Z,99.99
2022-12-23T04:29:05.809Z,99.99
2022-12-23T04:30:05.732Z,99.99
2022-12-23T04:31:05.746Z,99.99
2022-12-23T04:32:05.720Z,99.99
2022-12-23T04:33:05.720Z,99.99
2022-12-23T04:34:05.699Z,99.99
2022-12-23T04:35:05.691Z,99.99
2022-12-23T04:36:05.745Z,99.99
2022-12-23T04:37:05.695Z,99.99
2022-12-23T04:38:05.671Z,99.99
2022-12-23T04:39:05.676Z,99.99
2022-12-23T04:40:05.668Z,99.99
2022-12-23T04:41:05.658Z,99.99
2022-12-23T04:42:05.659Z,99.99
2022-12-23T04:43:05.638Z,99.99
2022-12-23T04:44:05.639Z,99.99
2022-12-23T04:45:05.623Z,99.99
2022-12-23T04:46:05.816Z,99.99
2022-12-23T04:47:05.666Z,99.99
2022-12-23T04:48:05.636Z,99.99
2022-12-23T04:49:05.597Z,99.99
2022-12-23T04:50:05.633Z,99.99
2022-12-23T04:51:05.597Z,99.99
2022-12-23T04:52:05.590Z,99.99
2022-12-23T04:53:05.595Z,99.99
2022-12-23T04:54:05.571Z,99.99
2022-12-23T04:55:05.559Z,99.99
2022-12-23T04:56:05.590Z,99.99
2022-12-23T04:57:05.549Z,99.99
2022-12-23T04:58:05.548Z,99.99
2022-12-23T04:59:05.538Z,99.99
2022-12-23T05:00:05.529Z,99.99
2022-12-23T05:01:05.543Z,99.99
2022-12-23T05:02:05.737Z,99.99
2022-12-23T05:03:05.576Z,99.99
2022-12-23T05:04:05.499Z,99.99
2022-12-23T05:05:05.568Z,99.99
2022-12-23T05:06:05.486Z,99.99
2022-12-23T05:07:05.479Z,99.99
2022-12-23T05:08:05.502Z,99.99
2022-12-23T05:09:05.479Z,99.99
2022-12-23T05:10:05.477Z,99.99
2022-12-23T05:11:05.449Z,99.99
2022-12-23T05:12:05.482Z,99.99
2022-12-23T05:13:05.442Z,99.99
2022-12-23T05:14:05.434Z,99.99
2022-12-23T05:15:05.422Z,99.99
2022-12-23T05:16:05.501Z,99.99
2022-12-23T05:17:07.638Z,99.99
2022-12-23T05:18:06.401Z,99.99
2022-12-23T05:19:05.423Z,99.99
2022-12-23T05:20:05.390Z,99.99
2022-12-23T05:21:05.380Z,99.99
2022-12-23T05:22:05.377Z,99.99
2022-12-23T05:23:05.381Z,99.99
2022-12-23T05:24:05.484Z,99.99
2022-12-23T05:25:05.364Z,99.99
2022-12-23T05:26:05.351Z,99.99
2022-12-23T05:27:05.352Z,99.99
2022-12-23T05:28:05.333Z,99.99
2022-12-23T05:29:05.324Z,99.99
2022-12-23T05:30:05.314Z,99.99
2022-12-23T05:31:05.407Z,99.99
2022-12-23T05:32:05.559Z,99.99
2022-12-23T05:33:05.343Z,99.99
2022-12-23T05:34:06.754Z,99.99
2022-12-23T05:35:06.283Z,99.99
2022-12-23T05:36:05.278Z,99.99
2022-12-23T05:37:05.281Z,99.99
2022-12-23T05:38:05.299Z,99.99
2022-12-23T05:39:05.247Z,99.99
2022-12-23T05:40:05.275Z,99.99
2022-12-23T05:41:05.236Z,99.99
2022-12-23T05:42:05.229Z,99.99
2022-12-23T05:43:05.226Z,99.99
2022-12-23T05:44:05.227Z,99.99
2022-12-23T05:45:05.286Z,99.99
2022-12-23T05:46:05.251Z,99.99
2022-12-23T05:47:05.192Z,99.99
2022-12-23T05:48:05.192Z,99.99
2022-12-23T05:49:05.188Z,99.99
2022-12-23T05:50:05.173Z,99.99
2022-12-23T05:51:05.173Z,99.99
2022-12-23T05:52:05.157Z,99.99
2022-12-23T05:53:05.150Z,99.99
2022-12-23T05:54:05.168Z,99.99
2022-12-23T05:55:05.146Z,99.99
2022-12-23T05:56:05.136Z,99.99
2022-12-23T05:57:05.121Z,99.99
2022-12-23T05:58:05.110Z,99.99
2022-12-23T05:59:05.110Z,99.99
2022-12-23T06:00:05.122Z,99.99
2022-12-23T06:01:05.093Z,99.99
2022-12-23T06:02:05.198Z,99.99
2022-12-23T06:03:05.236Z,99.99
2022-12-23T06:04:05.194Z,99.99
2022-12-23T06:05:05.057Z,99.99
2022-12-23T06:06:05.063Z,99.99
2022-12-23T06:07:05.061Z,99.99
2022-12-23T06:08:05.074Z,99.99
2022-12-23T06:09:05.038Z,99.99
2022-12-23T06:10:05.038Z,99.99
2022-12-23T06:11:05.124Z,99.99
2022-12-23T06:12:05.006Z,99.99
2022-12-23T06:13:05.020Z,99.99
2022-12-23T06:14:05.011Z,99.99
2022-12-23T06:15:04.987Z,99.99
2022-12-23T06:16:05.052Z,99.99
2022-12-23T06:17:05.013Z,99.99
2022-12-23T06:18:04.965Z,99.99
2022-12-23T06:19:04.958Z,99.99
2022-12-23T06:20:04.969Z,99.99
2022-12-23T06:21:04.940Z,99.99
2022-12-23T06:22:04.959Z,99.99
2022-12-23T06:23:04.931Z,99.99
2022-12-23T06:24:04.923Z,99.99
2022-12-23T06:25:04.932Z,99.99
2022-12-23T06:26:04.908Z,99.99
2022-12-23T06:27:04.912Z,99.99
2022-12-23T06:28:04.882Z,99.99
2022-12-23T06:29:04.878Z,99.99
2022-12-23T06:30:04.890Z,99.99
2022-12-23T06:31:04.876Z,99.99
2022-12-23T06:32:04.968Z,99.99
2022-12-23T06:33:04.861Z,99.99
2022-12-23T06:34:04.862Z,99.99
2022-12-23T06:35:04.838Z,99.99
2022-12-23T06:36:04.826Z,99.99
2022-12-23T06:37:04.824Z,99.99
2022-12-23T06:38:10.312Z,99.99
2022-12-23T06:39:06.834Z,99.99
2022-12-23T06:40:04.800Z,99.99
2022-12-23T06:41:04.798Z,99.99
2022-12-23T06:42:04.783Z,99.99
2022-12-23T06:43:04.788Z,99.99
2022-12-23T06:44:04.795Z,99.99
2022-12-23T06:45:04.765Z,99.99
2022-12-23T06:46:04.809Z,99.99
2022-12-23T06:47:04.747Z,99.99
2022-12-23T06:48:04.754Z,99.99
2022-12-23T06:49:10.912Z,99.99
2022-12-23T06:50:06.740Z,99.99
2022-12-23T06:51:04.741Z,99.99
2022-12-23T06:52:04.851Z,99.99
2022-12-23T06:53:04.721Z,99.99
2022-12-23T06:54:04.715Z,99.99
2022-12-23T06:55:04.691Z,99.99
2022-12-23T06:56:04.706Z,99.99
2022-12-23T06:57:04.685Z,99.99
2022-12-23T06:58:04.681Z,99.99
2022-12-23T06:59:04.737Z,99.99
2022-12-23T07:00:04.665Z,99.99
2022-12-23T07:01:04.653Z,99.99
2022-12-23T07:02:04.917Z,99.99
2022-12-23T07:03:04.741Z,99.99
2022-12-23T07:04:04.647Z,99.99
2022-12-23T07:05:04.635Z,99.99
2022-12-23T07:06:04.641Z,99.99
2022-12-23T07:07:04.661Z,99.99
2022-12-23T07:08:04.605Z,99.99
2022-12-23T07:09:04.616Z,99.99
2022-12-23T07:10:04.591Z,99.99
2022-12-23T07:11:04.584Z,99.99
2022-12-23T07:12:04.616Z,99.99
2022-12-23T07:13:04.577Z,99.99
2022-12-23T07:14:04.552Z,99.99
2022-12-23T07:15:04.552Z,99.99
2022-12-23T07:16:04.559Z,99.99
2022-12-23T07:17:04.584Z,99.99
2022-12-23T07:18:04.540Z,99.99
2022-12-23T07:19:04.532Z,99.99
2022-12-23T07:20:04.529Z,99.99
2022-12-23T07:21:04.535Z,99.99
2022-12-23T07:22:04.511Z,99.99
2022-12-23T07:23:04.494Z,99.99
2022-12-23T07:24:04.505Z,99.99
2022-12-23T07:25:04.490Z,99.99
2022-12-23T07:26:04.492Z,99.99
2022-12-23T07:27:04.490Z,99.99
2022-12-23T07:28:04.486Z,99.99
2022-12-23T07:29:04.480Z,99.99
2022-12-23T07:30:04.444Z,99.99
2022-12-23T07:31:04.466Z,99.99
2022-12-23T07:32:04.518Z,99.99
2022-12-23T07:33:04.443Z,99.99
2022-12-23T07:34:04.420Z,99.99
2022-12-23T07:35:04.418Z,99.99
2022-12-23T07:36:04.426Z,99.99
2022-12-23T07:37:04.405Z,99.99
2022-12-23T07:38:04.410Z,99.99
2022-12-23T07:39:04.388Z,99.99
2022-12-23T07:40:08.522Z,99.99
2022-12-23T07:41:05.391Z,99.99
2022-12-23T07:42:33.976Z,99.99
2022-12-23T07:43:06.364Z,99.99
2022-12-23T07:44:04.363Z,99.99
2022-12-23T07:45:04.351Z,99.99
2022-12-23T07:46:04.372Z,99.99
2022-12-23T07:47:04.332Z,99.99
2022-12-23T07:48:04.347Z,99.99
2022-12-23T07:49:04.321Z,99.99
2022-12-23T07:50:04.309Z,99.99
2022-12-23T07:51:04.309Z,99.99
2022-12-23T07:52:04.304Z,99.99
2022-12-23T07:53:04.292Z,99.99
2022-12-23T07:54:04.271Z,99.99
2022-12-23T07:55:04.289Z,99.99
2022-12-23T07:56:04.318Z,99.99
2022-12-23T07:57:04.287Z,99.99
2022-12-23T07:58:04.256Z,99.99
2022-12-23T07:59:04.240Z,99.99
2022-12-23T08:00:04.271Z,99.99
2022-12-23T08:01:04.301Z,99.99
2022-12-23T08:02:04.373Z,99.99
2022-12-23T08:03:04.353Z,99.99
2022-12-23T08:04:04.247Z,99.59
2022-12-23T08:05:04.274Z,99.59
2022-12-23T08:06:04.219Z,99.49
2022-12-23T08:07:04.178Z,99.69
2022-12-23T08:08:04.263Z,98.87
2022-12-23T08:09:04.167Z,98.36
2022-12-23T08:10:04.170Z,98.05
2022-12-23T08:11:04.167Z,98.87
2022-12-23T08:12:04.157Z,98.57
2022-12-23T08:13:04.139Z,98.16
2022-12-23T08:14:04.155Z,98.46
2022-12-23T08:15:04.135Z,99.49
2022-12-23T08:16:04.159Z,99.54
2022-12-23T08:17:04.142Z,99.38
2022-12-23T08:18:04.115Z,99.38
2022-12-23T08:19:04.123Z,99.59
2022-12-23T08:20:04.266Z,99.38
2022-12-23T08:21:04.087Z,99.63
2022-12-23T08:22:04.079Z,99.49
2022-12-23T08:23:04.074Z,99.54
2022-12-23T08:24:04.140Z,99.74
2022-12-23T08:25:04.083Z,99.74
2022-12-23T08:26:04.052Z,99.74
2022-12-23T08:27:04.046Z,99.99
2022-12-23T08:28:04.048Z,99.99
2022-12-23T08:29:04.036Z,99.99
2022-12-23T08:30:04.041Z,99.74
2022-12-23T08:31:04.090Z,99.84
2022-12-23T08:32:04.020Z,99.54
2022-12-23T08:33:04.014Z,99.22
2022-12-23T08:34:03.997Z,99.49
2022-12-23T08:35:04.013Z,99.84
2022-12-23T08:36:03.984Z,99.63
2022-12-23T08:37:04.001Z,99.59
2022-12-23T08:38:03.999Z,99.59
2022-12-23T08:39:03.978Z,99.28
2022-12-23T08:40:03.967Z,99.38
2022-12-23T08:41:03.971Z,99.54
2022-12-23T08:42:03.959Z,99.43
2022-12-23T08:43:03.950Z,99.69
2022-12-23T08:44:03.938Z,99.38
2022-12-23T08:45:03.924Z,99.28
2022-12-23T08:46:04.028Z,98.57
2022-12-23T08:47:03.919Z,98.77
2022-12-23T08:48:03.901Z,98.57
2022-12-23T08:49:03.889Z,98.52
2022-12-23T08:50:03.900Z,98.25
2022-12-23T08:51:03.914Z,98.16
2022-12-23T08:52:03.867Z,98.57
2022-12-23T08:53:03.872Z,98.36
2022-12-23T08:54:03.894Z,98.57
2022-12-23T08:55:03.856Z,98.21
2022-12-23T08:56:03.841Z,98.25
2022-12-23T08:57:03.852Z,98.21
2022-12-23T08:58:03.821Z,97.23
2022-12-23T08:59:03.845Z,98.21
2022-12-23T09:00:03.830Z,98.42
2022-12-23T09:01:03.910Z,97.39
2022-12-23T09:02:04.073Z,98.32
2022-12-23T09:03:03.952Z,98.05
2022-12-23T09:04:04.006Z,98.36
2022-12-23T09:05:03.785Z,97.85
2022-12-23T09:06:03.766Z,98.32
2022-12-23T09:07:03.764Z,97.95
2022-12-23T09:08:03.766Z,98.42
2022-12-23T09:09:03.780Z,98.42
2022-12-23T09:10:03.765Z,97.80
2022-12-23T09:11:03.746Z,98.36
2022-12-23T09:12:03.745Z,98.21
2022-12-23T09:13:03.730Z,97.60
2022-12-23T09:14:03.713Z,97.60
2022-12-23T09:15:04.734Z,97.49
2022-12-23T09:16:03.743Z,97.60
2022-12-23T09:17:03.702Z,97.29
2022-12-23T09:18:03.740Z,97.60
2022-12-23T09:19:03.694Z,97.70
2022-12-23T09:20:03.681Z,97.29
2022-12-23T09:21:03.672Z,97.80
2022-12-23T09:22:03.661Z,97.29
2022-12-23T09:23:03.655Z,97.75
2022-12-23T09:24:03.650Z,97.34
2022-12-23T09:25:05.462Z,96.94
2022-12-23T09:26:04.659Z,97.75
2022-12-23T09:27:03.630Z,96.83
2022-12-23T09:28:03.621Z,96.94
2022-12-23T09:29:03.614Z,96.83
2022-12-23T09:30:03.612Z,97.14
2022-12-23T09:31:03.649Z,96.94
2022-12-23T09:32:03.611Z,97.75
2022-12-23T09:33:03.598Z,97.55
2022-12-23T09:34:03.588Z,97.14
2022-12-23T09:35:03.573Z,96.73
2022-12-23T09:36:03.580Z,96.22
2022-12-23T09:37:03.583Z,96.32
2022-12-23T09:38:03.567Z,96.22
2022-12-23T09:39:03.584Z,96.42
2022-12-23T09:40:03.571Z,96.42
2022-12-23T09:41:03.542Z,96.38
2022-12-23T09:42:03.543Z,95.87
2022-12-23T09:43:03.531Z,95.76
2022-12-23T09:44:03.526Z,96.38
2022-12-23T09:45:03.519Z,96.17
2022-12-23T09:46:03.542Z,95.15
2022-12-23T09:47:03.589Z,95.36
2022-12-23T09:48:03.509Z,94.70
2022-12-23T09:49:03.496Z,94.74
2022-12-23T09:50:03.468Z,94.95
2022-12-23T09:51:03.495Z,94.84
2022-12-23T09:52:03.585Z,94.84
2022-12-23T09:53:03.465Z,95.25
2022-12-23T09:54:03.439Z,94.64
2022-12-23T09:55:03.451Z,94.39
2022-12-23T09:56:03.450Z,94.49
2022-12-23T09:57:03.464Z,94.64
2022-12-23T09:58:03.439Z,94.64
2022-12-23T09:59:03.411Z,94.02
2022-12-23T10:00:03.428Z,94.43
2022-12-23T10:01:03.405Z,94.64
2022-12-23T10:02:03.447Z,94.43
2022-12-23T10:03:03.655Z,94.39
2022-12-23T10:04:03.495Z,93.88
2022-12-23T10:05:03.431Z,94.18
2022-12-23T10:06:03.375Z,93.67
2022-12-23T10:07:03.409Z,93.57
2022-12-23T10:08:03.355Z,93.37
2022-12-23T10:09:03.351Z,93.37
2022-12-23T10:10:03.364Z,93.47
2022-12-23T10:11:03.343Z,93.67
2022-12-23T10:12:03.332Z,92.75
2022-12-23T10:13:03.345Z,93.00
2022-12-23T10:14:03.322Z,93.06
2022-12-23T10:15:03.324Z,92.55
2022-12-23T10:16:03.452Z,92.44
2022-12-23T10:17:03.301Z,92.44
2022-12-23T10:18:03.325Z,92.65
2022-12-23T10:19:03.282Z,92.55
2022-12-23T10:20:03.279Z,92.03
2022-12-23T10:21:03.331Z,92.34
2022-12-23T10:22:03.264Z,92.14
2022-12-23T10:23:03.248Z,92.03
2022-12-23T10:24:03.248Z,91.83
2022-12-23T10:25:03.236Z,91.83
2022-12-23T10:26:03.236Z,91.93
2022-12-23T10:27:03.230Z,92.24
2022-12-23T10:28:03.227Z,91.83
2022-12-23T10:29:03.229Z,92.34
2022-12-23T10:30:19.966Z,91.73
2022-12-23T10:31:30.850Z,92.55
2022-12-23T10:32:05.236Z,93.06
2022-12-23T10:33:03.207Z,93.51
2022-12-23T10:34:03.193Z,94.18
2022-12-23T10:35:03.196Z,94.54
2022-12-23T10:36:03.209Z,94.64
2022-12-23T10:37:03.253Z,95.36
2022-12-23T10:38:03.157Z,95.91
2022-12-23T10:39:03.170Z,96.12
2022-12-23T10:40:03.189Z,96.42
2022-12-23T10:41:08.910Z,97.24
2022-12-23T10:42:05.123Z,97.04
2022-12-23T10:43:03.111Z,96.73
2022-12-23T10:44:03.115Z,96.83
2022-12-23T10:45:03.096Z,97.04
2022-12-23T10:46:03.119Z,98.00
2022-12-23T10:47:03.126Z,97.34
2022-12-23T10:48:05.086Z,97.24
2022-12-23T10:49:03.077Z,97.04
2022-12-23T10:50:03.096Z,96.83
2022-12-23T10:51:03.056Z,97.29
2022-12-23T10:52:03.071Z,97.08
2022-12-23T10:53:03.052Z,97.24
2022-12-23T10:54:03.052Z,98.07
2022-12-23T10:55:03.044Z,97.24
2022-12-23T10:56:03.043Z,97.86
2022-12-23T10:57:03.035Z,97.55
2022-12-23T10:58:03.030Z,97.55
2022-12-23T10:59:03.023Z,97.60
2022-12-23T11:00:03.001Z,96.83
2022-12-23T11:01:05.725Z,97.45
2022-12-23T11:02:04.285Z,97.45
2022-12-23T11:03:03.163Z,97.45
2022-12-23T11:04:02.990Z,97.24
2022-12-23T11:05:02.986Z,96.94
2022-12-23T11:06:02.974Z,97.24
2022-12-23T11:07:34.401Z,96.83
2022-12-23T11:08:04.969Z,97.14
2022-12-23T11:09:02.938Z,98.11
2022-12-23T11:10:02.947Z,97.19
2022-12-23T11:11:02.929Z,97.19
2022-12-23T11:12:02.934Z,97.70
2022-12-23T11:13:02.914Z,98.32
2022-12-23T11:14:02.915Z,98.21
2022-12-23T11:15:02.903Z,98.32
2022-12-23T11:16:02.978Z,98.11
2022-12-23T11:17:02.897Z,98.32
2022-12-23T11:18:02.877Z,98.00
2022-12-23T11:19:02.877Z,98.21
2022-12-23T11:20:02.886Z,97.80
2022-12-23T11:21:02.853Z,98.21
2022-12-23T11:22:02.851Z,98.42
2022-12-23T11:23:02.846Z,98.21
2022-12-23T11:24:02.833Z,98.62
2022-12-23T11:25:02.837Z,98.21
2022-12-23T11:26:02.831Z,97.91
2022-12-23T11:27:02.829Z,97.80
2022-12-23T11:28:02.822Z,98.32
2022-12-23T11:29:02.851Z,97.70
2022-12-23T11:30:02.791Z,97.91
2022-12-23T11:31:02.790Z,98.93
2022-12-23T11:32:02.851Z,98.83
2022-12-23T11:33:02.777Z,98.88
2022-12-23T11:34:02.769Z,98.83
2022-12-23T11:35:02.799Z,97.80
2022-12-23T11:36:02.756Z,98.72
2022-12-23T11:37:07.281Z,98.83
2022-12-23T11:38:04.759Z,98.83
2022-12-23T11:39:02.734Z,97.60
2022-12-23T11:40:02.749Z,98.00
2022-12-23T11:41:02.741Z,98.83
2022-12-23T11:42:02.729Z,98.16
2022-12-23T11:43:02.694Z,98.21
2022-12-23T11:44:02.687Z,98.11
2022-12-23T11:45:02.696Z,98.21
2022-12-23T11:46:02.774Z,97.49
2022-12-23T11:47:02.679Z,97.65
2022-12-23T11:48:02.664Z,97.55
2022-12-23T11:49:02.657Z,98.07
2022-12-23T11:50:02.659Z,96.83
2022-12-23T11:51:02.666Z,97.24
2022-12-23T11:52:02.647Z,97.24
2022-12-23T11:53:02.656Z,97.14
2022-12-23T11:54:02.642Z,97.04
2022-12-23T11:55:02.608Z,96.94
2022-12-23T11:56:02.616Z,96.53
2022-12-23T11:57:02.634Z,96.32
2022-12-23T11:58:02.614Z,96.22
2022-12-23T11:59:02.577Z,95.91
2022-12-23T12:00:02.581Z,96.22
2022-12-23T12:01:02.574Z,95.61
2022-12-23T12:02:02.603Z,96.22
2022-12-23T12:03:02.639Z,95.61
2022-12-23T12:04:02.784Z,95.61
2022-12-23T12:05:02.565Z,95.91
2022-12-23T12:06:02.536Z,95.91
2022-12-23T12:07:02.540Z,95.50
2022-12-23T12:08:02.528Z,95.70
2022-12-23T12:09:02.519Z,95.66
2022-12-23T12:10:02.518Z,95.61
2022-12-23T12:11:02.494Z,95.61
2022-12-23T12:12:03.503Z,95.61
2022-12-23T12:13:02.536Z,95.70
2022-12-23T12:14:02.492Z,95.50
2022-12-23T12:15:02.490Z,95.91
2022-12-23T12:16:02.486Z,95.87
2022-12-23T12:17:02.533Z,95.56
2022-12-23T12:18:02.462Z,95.76
2022-12-23T12:19:02.459Z,95.56
2022-12-23T12:20:02.455Z,96.07
2022-12-23T12:21:02.541Z,96.17
2022-12-23T12:22:02.436Z,95.91
2022-12-23T12:23:02.435Z,96.38
2022-12-23T12:24:17.640Z,96.07
2022-12-23T12:25:04.419Z,96.32
2022-12-23T12:26:02.407Z,96.12
2022-12-23T12:27:02.410Z,96.12
2022-12-23T12:28:02.394Z,96.53
2022-12-23T12:29:02.428Z,96.32
2022-12-23T12:30:07.998Z,96.32
2022-12-23T12:31:04.431Z,96.32
2022-12-23T12:32:02.382Z,96.22
2022-12-23T12:33:02.361Z,96.22
2022-12-23T12:34:02.364Z,96.22
2022-12-23T12:35:02.350Z,96.32
2022-12-23T12:36:05.508Z,96.22
2022-12-23T12:37:03.417Z,95.61
2022-12-23T12:38:02.333Z,95.61
2022-12-23T12:39:02.320Z,96.53
2022-12-23T12:40:02.314Z,96.42
2022-12-23T12:41:02.301Z,96.22
2022-12-23T12:42:05.782Z,96.83
2022-12-23T12:43:03.286Z,96.37
2022-12-23T12:44:02.270Z,97.04
2022-12-23T12:45:02.276Z,97.14
2022-12-23T12:46:02.438Z,96.88
2022-12-23T12:47:15.954Z,97.75
2022-12-23T12:48:12.798Z,97.49
2022-12-23T12:49:04.234Z,96.78
2022-12-23T12:50:02.228Z,96.88
2022-12-23T12:51:02.235Z,97.55
2022-12-23T12:52:02.297Z,97.70
2022-12-23T12:53:02.199Z,97.80